Time;durP1;ratioP1;P1;durP2;ratioP2;P2;SDS_P1;SDS_P2;PMS_P1;PMS_P2;Temp;Humidity;BMP_temperature;BMP_pressure;BME280_temperature;BME280_humidity;BME280_pressure;Samples;Min_cycle;Max_cycle;Signal;HPM_P1;HPM_P2
2022/03/14 00:00:10;;;;;;;3.55;3.22;;;;;;;9.45;72.50;101703.78;5092920;28;20578;-78
2022/03/14 00:02:37;;;;;;;3.42;3.13;;;;;;;9.46;72.46;101699.31;5093258;28;20028;-77
2022/03/14 00:05:04;;;;;;;6.65;2.95;;;;;;;9.44;72.39;101707.38;5092875;28;20452;-77
2022/03/14 00:07:31;;;;;;;3.50;3.10;;;;;;;9.42;72.35;101701.34;5092903;28;20038;-76
2022/03/14 00:09:57;;;;;;;3.25;2.95;;;;;;;9.42;72.17;101698.69;5093399;28;20035;-77
2022/03/14 00:12:25;;;;;;;3.25;2.90;;;;;;;9.41;72.43;101706.78;5092817;28;20032;-76
2022/03/14 00:14:55;;;;;;;4.22;2.78;;;;;;;9.40;72.34;101702.41;5093131;28;20063;-77
2022/03/14 00:17:22;;;;;;;3.83;2.95;;;;;;;9.42;72.12;101714.63;5093137;28;20139;-76
2022/03/14 00:19:47;;;;;;;3.05;2.50;;;;;;;9.41;72.43;101714.75;5092720;28;20135;-76
2022/03/14 00:22:15;;;;;;;3.22;2.85;;;;;;;9.40;72.54;101723.66;5092518;28;20119;-76
2022/03/14 00:24:41;;;;;;;4.05;2.80;;;;;;;9.39;72.36;101727.25;5092649;28;20059;-77
2022/03/14 00:27:07;;;;;;;3.38;2.90;;;;;;;9.39;72.20;101728.13;5093037;28;20044;-77
2022/03/14 00:29:32;;;;;;;3.50;2.67;;;;;;;9.36;72.65;101725.69;5074687;28;20109;-77
2022/03/14 00:32:00;;;;;;;3.15;2.85;;;;;;;9.35;72.73;101722.16;5075214;28;20441;-77
2022/03/14 00:34:25;;;;;;;3.88;3.08;;;;;;;9.32;73.25;101727.69;5092536;28;20033;-75
2022/03/14 00:36:50;;;;;;;3.20;2.90;;;;;;;9.32;72.82;101721.56;5092537;28;20052;-76
2022/03/14 00:39:16;;;;;;;2.75;2.55;;;;;;;9.31;72.73;101723.34;5093102;28;20093;-76
2022/03/14 00:41:41;;;;;;;3.17;2.83;;;;;;;9.32;73.04;101734.81;5092296;28;20031;-76
2022/03/14 00:44:07;;;;;;;3.35;2.80;;;;;;;9.33;72.88;101739.16;5092488;28;20028;-76
2022/03/14 00:46:32;;;;;;;3.88;2.80;;;;;;;9.31;73.09;101730.47;5092393;28;20104;-77
2022/03/14 00:48:57;;;;;;;3.80;3.13;;;;;;;9.28;73.03;101742.16;5092520;28;20036;-78
2022/03/14 00:51:23;;;;;;;6.38;2.83;;;;;;;9.27;73.32;101740.47;5092610;28;20028;-78
2022/03/14 00:53:48;;;;;;;2.92;2.65;;;;;;;9.25;72.92;101752.16;5092432;28;20028;-77
2022/03/14 00:56:13;;;;;;;3.50;3.10;;;;;;;9.25;73.36;101746.84;5092229;28;20032;-77
2022/03/14 00:58:39;;;;;;;4.30;2.92;;;;;;;9.27;73.57;101752.88;5092446;28;20032;-77
2022/03/14 01:01:05;;;;;;;3.45;3.15;;;;;;;9.28;73.45;101749.28;5094844;28;20461;-78
2022/03/14 01:03:30;;;;;;;4.38;3.22;;;;;;;9.27;73.73;101755.53;5095801;28;20437;-78
2022/03/14 01:05:56;;;;;;;3.30;3.00;;;;;;;9.24;73.88;101753.97;5095833;28;20032;-77
2022/03/14 01:08:22;;;;;;;4.65;3.60;;;;;;;9.27;73.58;101763.50;5095889;28;20032;-77
2022/03/14 01:10:48;;;;;;;4.97;3.28;;;;;;;9.26;74.28;101764.47;5095849;28;20357;-77
2022/03/14 01:13:14;;;;;;;3.75;3.33;;;;;;;9.22;74.69;101761.19;5096255;28;20043;-76
2022/03/14 01:15:39;;;;;;;4.00;3.60;;;;;;;9.18;74.81;101768.53;5095456;28;20471;-77
2022/03/14 01:18:05;;;;;;;3.90;3.50;;;;;;;9.15;74.85;101774.03;5095673;28;20472;-76
2022/03/14 01:20:32;;;;;;;4.03;3.30;;;;;;;9.15;74.80;101779.34;5095588;28;20422;-76
2022/03/14 01:22:57;;;;;;;3.53;3.22;;;;;;;9.14;74.92;101776.81;5095304;28;20358;-76
2022/03/14 01:25:26;;;;;;;3.60;3.28;;;;;;;9.15;74.72;101775.81;5095496;28;20042;-75
2022/03/14 01:27:52;;;;;;;4.13;2.97;;;;;;;9.14;74.67;101782.97;5095568;28;20035;-76
2022/03/14 01:30:19;;;;;;;3.90;3.30;;;;;;;9.16;74.50;101780.19;5095448;28;20028;-76
2022/03/14 01:32:44;;;;;;;3.92;3.13;;;;;;;9.19;74.14;101777.31;5095576;28;20036;-76
2022/03/14 01:35:10;;;;;;;5.57;3.28;;;;;;;9.18;74.29;101796.84;5095340;28;20039;-76
2022/03/14 01:37:35;;;;;;;3.67;3.22;;;;;;;9.15;74.78;101797.06;5095135;28;20059;-76
2022/03/14 01:40:00;;;;;;;4.45;3.05;;;;;;;9.10;75.83;101801.88;5095331;28;20541;-76
2022/03/14 01:42:26;;;;;;;4.18;3.60;;;;;;;9.04;77.15;101800.47;5095178;28;20024;-76
2022/03/14 01:44:52;;;;;;;4.25;3.85;;;;;;;8.93;79.99;101805.69;5076990;28;20036;-78
2022/03/14 01:47:18;;;;;;;4.03;3.67;;;;;;;8.65;82.71;101810.19;5095388;28;20383;-78
2022/03/14 01:49:45;;;;;;;5.85;3.97;;;;;;;8.53;84.11;101813.69;5094799;28;20074;-78
2022/03/14 01:52:13;;;;;;;5.70;4.72;;;;;;;8.33;86.37;101813.16;5095012;28;20040;-77
2022/03/14 01:54:39;;;;;;;7.15;4.60;;;;;;;8.15;88.12;101820.50;5094790;28;20039;-78
2022/03/14 01:57:05;;;;;;;5.93;4.40;;;;;;;8.06;89.01;101819.31;5094960;28;20025;-77
2022/03/14 01:59:31;;;;;;;5.53;4.45;;;;;;;7.99;89.20;101810.03;5095383;28;20024;-77
2022/03/14 02:01:56;;;;;;;5.82;4.78;;;;;;;7.95;89.68;101819.97;5094694;28;20032;-77
2022/03/14 02:04:22;;;;;;;5.38;4.85;;;;;;;7.90;90.23;101815.94;5094903;28;20043;-78
2022/03/14 02:06:49;;;;;;;5.95;5.03;;;;;;;7.87;91.09;101821.44;5095463;28;20490;-77
2022/03/14 02:09:15;;;;;;;7.53;5.03;;;;;;;7.84;90.93;101827.75;5094421;28;20040;-77
2022/03/14 02:11:52;;;;;;;5.57;4.90;;;;;;;7.81;91.33;101829.75;5093895;28;20115;-77
2022/03/14 02:14:18;;;;;;;7.53;5.05;;;;;;;7.81;91.61;101833.25;5094487;28;20107;-76
2022/03/14 02:16:43;;;;;;;6.15;4.63;;;;;;;7.82;91.46;101827.00;5094354;28;20056;-77
2022/03/14 02:19:09;;;;;;;7.45;5.60;;;;;;;7.81;91.51;101837.69;5076064;28;20109;-77
2022/03/14 02:21:34;;;;;;;7.50;5.82;;;;;;;7.77;91.94;101845.84;5076127;28;20107;-77
2022/03/14 02:24:01;;;;;;;6.10;5.50;;;;;;;7.78;92.14;101854.66;5076343;28;20111;-77
2022/03/14 02:26:26;;;;;;;6.93;6.00;;;;;;;7.81;92.30;101853.59;5094464;28;20028;-77
2022/03/14 02:28:52;;;;;;;7.15;6.40;;;;;;;7.80;92.47;101858.03;5094166;28;20380;-77
2022/03/14 02:31:17;;;;;;;9.18;6.70;;;;;;;7.81;92.37;101859.75;5094454;28;20032;-76
2022/03/14 02:33:42;;;;;;;7.20;6.50;;;;;;;7.82;92.68;101863.25;5093987;28;20092;-77
2022/03/14 02:36:07;;;;;;;8.00;7.07;;;;;;;7.81;92.34;101866.84;5094053;28;20110;-77
2022/03/14 02:38:33;;;;;;;8.57;7.40;;;;;;;7.79;92.79;101874.88;5094323;28;20396;-77
2022/03/14 02:40:59;;;;;;;7.45;6.70;;;;;;;7.79;93.14;101872.22;5094055;28;20032;-77
2022/03/14 02:43:24;;;;;;;8.18;7.22;;;;;;;7.76;93.37;101870.66;5094254;28;20031;-77
2022/03/14 02:45:52;;;;;;;8.35;7.45;;;;;;;7.77;93.26;101876.78;5093690;28;20039;-77
2022/03/14 02:48:19;;;;;;;8.15;7.07;;;;;;;7.76;93.21;101881.25;5094634;28;20121;-77
2022/03/14 02:50:49;;;;;;;8.40;7.00;;;;;;;7.78;93.17;101873.19;5093577;28;20395;-77
2022/03/14 02:53:15;;;;;;;8.38;7.40;;;;;;;7.81;93.15;101877.44;5093801;28;20480;-77
2022/03/14 02:55:41;;;;;;;9.95;8.45;;;;;;;7.76;93.12;101875.94;5093705;28;20056;-77
2022/03/14 02:58:07;;;;;;;10.57;8.57;;;;;;;7.77;93.21;101885.56;5093880;28;20032;-77
2022/03/14 03:00:35;;;;;;;10.00;8.98;;;;;;;7.77;93.35;101892.69;5093740;28;20492;-78
2022/03/14 03:03:02;;;;;;;10.82;9.73;;;;;;;7.79;93.67;101892.59;5093785;28;20062;-77
2022/03/14 03:05:31;;;;;;;10.63;9.07;;;;;;;7.76;93.84;101905.09;5093610;28;20555;-77
2022/03/14 03:08:00;;;;;;;11.13;10.02;;;;;;;7.74;94.11;101904.31;5094163;28;20024;-77
2022/03/14 03:10:28;;;;;;;12.93;10.48;;;;;;;7.71;94.75;101901.84;5075956;28;20032;-77
2022/03/14 03:12:54;;;;;;;12.30;11.00;;;;;;;7.65;95.39;101910.19;5093725;28;20020;-77
2022/03/14 03:15:19;;;;;;;13.52;11.73;;;;;;;7.57;96.28;101915.94;5093293;28;20055;-76
2022/03/14 03:17:45;;;;;;;16.10;12.90;;;;;;;7.49;97.19;101912.91;5093493;28;20117;-76
2022/03/14 03:20:11;;;;;;;15.30;13.13;;;;;;;7.45;98.18;101921.13;5093570;28;20040;-78
2022/03/14 03:22:38;;;;;;;17.05;14.15;;;;;;;7.40;98.92;101929.34;5093503;28;20040;-77
2022/03/14 03:25:05;;;;;;;19.00;16.63;;;;;;;7.37;99.07;101930.38;5075290;28;20032;-78
2022/03/14 03:27:31;;;;;;;19.33;16.88;;;;;;;7.36;99.41;101944.56;5093370;28;20032;-77
2022/03/14 03:29:57;;;;;;;21.55;17.38;;;;;;;7.35;99.59;101940.22;5093335;28;20024;-77
2022/03/14 03:32:23;;;;;;;22.13;18.17;;;;;;;7.35;99.59;101939.38;5093751;28;20024;-77
2022/03/14 03:34:48;;;;;;;21.95;18.40;;;;;;;7.35;99.73;101949.97;5075095;28;20464;-78
2022/03/14 03:37:14;;;;;;;22.13;18.13;;;;;;;7.34;99.74;101935.84;5092902;28;20128;-77
2022/03/14 03:39:39;;;;;;;27.05;18.50;;;;;;;7.36;99.89;101943.72;5093165;28;20093;-75
2022/03/14 03:42:05;;;;;;;23.23;18.38;;;;;;;7.35;99.65;101952.63;5092898;28;20032;-75
2022/03/14 03:44:31;;;;;;;22.60;16.90;;;;;;;7.32;99.71;101964.22;5093300;28;20031;-77
2022/03/14 03:46:56;;;;;;;24.00;17.30;;;;;;;7.29;99.81;101969.72;5093028;28;20119;-77
2022/03/14 03:49:21;;;;;;;19.15;14.65;;;;;;;7.26;100.00;101964.59;5093165;28;20190;-77
2022/03/14 03:51:47;;;;;;;22.35;14.57;;;;;;;7.23;100.00;101988.59;5093232;28;20072;-78
2022/03/14 03:54:12;;;;;;;19.15;13.00;;;;;;;7.16;100.00;101988.09;5093263;28;20036;-77
2022/03/14 03:56:38;;;;;;;17.95;12.63;;;;;;;7.11;100.00;101991.97;5093466;28;20495;-78
2022/03/14 03:59:04;;;;;;;17.27;11.93;;;;;;;7.04;100.00;102000.22;5093282;28;20036;-77
2022/03/14 04:01:30;;;;;;;17.95;10.98;;;;;;;7.03;100.00;102001.19;5093294;28;20373;-77
2022/03/14 04:03:58;;;;;;;21.42;9.73;;;;;;;7.00;100.00;102005.78;5092566;28;20028;-77
2022/03/14 04:06:27;;;;;;;18.20;9.57;;;;;;;6.96;100.00;102015.72;5092922;28;20040;-78
2022/03/14 04:08:54;;;;;;;13.15;8.32;;;;;;;6.92;100.00;102030.03;5092846;28;20044;-78
2022/03/14 04:11:20;;;;;;;13.90;7.18;;;;;;;6.90;100.00;102026.66;5092958;28;20571;-77
2022/03/14 04:13:46;;;;;;;14.77;7.25;;;;;;;6.87;100.00;102027.66;5092677;28;20473;-76
2022/03/14 04:16:17;;;;;;;12.10;5.82;;;;;;;6.87;100.00;102040.03;5092755;28;20035;-77
2022/03/14 04:18:42;;;;;;;16.98;5.38;;;;;;;6.82;99.83;102042.94;5093197;28;20028;-77
2022/03/14 04:21:08;;;;;;;16.17;5.00;;;;;;;6.84;99.34;102049.00;5092816;28;20047;-78
2022/03/14 04:23:34;;;;;;;14.35;4.57;;;;;;;6.82;99.03;102036.78;5093333;28;20036;-76
2022/03/14 04:26:00;;;;;;;9.50;4.25;;;;;;;6.81;98.58;102051.81;5092556;28;20047;-74
2022/03/14 04:28:25;;;;;;;13.68;4.40;;;;;;;6.78;98.07;102059.94;5092774;28;20388;-76
2022/03/14 04:30:51;;;;;;;11.70;4.70;;;;;;;6.76;97.94;102063.59;5092583;28;20060;-77
2022/03/14 04:33:16;;;;;;;9.45;4.40;;;;;;;6.76;97.96;102075.00;5092670;28;20086;-76
2022/03/14 04:35:42;;;;;;;10.82;3.95;;;;;;;6.76;97.92;102087.38;5078349;28;20031;-77
2022/03/14 04:38:07;;;;;;;11.23;4.05;;;;;;;6.72;98.01;102092.00;5097166;28;20044;-76
2022/03/14 04:40:34;;;;;;;9.48;3.80;;;;;;;6.69;98.12;102095.66;5096797;28;20376;-77
2022/03/14 04:43:07;;;;;;;9.75;3.72;;;;;;;6.68;98.24;102096.59;5096536;28;20073;-77
2022/03/14 04:45:32;;;;;;;14.32;4.10;;;;;;;6.67;98.32;102108.13;5096423;28;20115;-77
2022/03/14 04:47:59;;;;;;;13.57;3.97;;;;;;;6.70;98.06;102112.38;5097015;28;20122;-77
2022/03/14 04:50:25;;;;;;;12.50;4.82;;;;;;;6.68;98.01;102109.81;5096259;28;20031;-77
2022/03/14 04:52:50;;;;;;;14.77;4.53;;;;;;;6.69;97.93;102121.28;5096127;28;20032;-78
2022/03/14 04:55:16;;;;;;;12.60;4.82;;;;;;;6.72;98.05;102134.31;5078055;28;20444;-77
2022/03/14 04:57:41;;;;;;;13.60;5.47;;;;;;;6.74;97.72;102127.16;5078100;28;20028;-78
2022/03/14 05:00:08;;;;;;;15.30;5.47;;;;;;;6.76;97.75;102140.28;5078534;28;20349;-77
2022/03/14 05:02:34;;;;;;;12.00;5.60;;;;;;;6.73;97.74;102146.59;5096375;28;20049;-76
2022/03/14 05:05:00;;;;;;;25.20;6.00;;;;;;;6.71;97.30;102148.47;5096019;28;20391;-77
2022/03/14 05:07:26;;;;;;;11.45;5.82;;;;;;;6.67;97.59;102153.09;5096063;28;20032;-78
2022/03/14 05:09:51;;;;;;;19.98;7.10;;;;;;;6.64;97.81;102152.38;5061211;28;20392;-77
2022/03/14 05:12:17;;;;;;;14.32;7.72;;;;;;;6.60;98.36;102157.00;5096194;28;20032;-77
2022/03/14 05:14:42;;;;;;;17.00;7.53;;;;;;;6.61;98.53;102166.63;5095796;28;20451;-76
2022/03/14 05:17:08;;;;;;;20.13;7.30;;;;;;;6.62;98.76;102170.13;5095745;28;20032;-77
2022/03/14 05:19:34;;;;;;;17.48;7.93;;;;;;;6.66;99.01;102179.63;5095826;28;20036;-77
2022/03/14 05:22:00;;;;;;;17.88;8.70;;;;;;;6.71;99.11;102180.22;5077460;28;20032;-77
2022/03/14 05:24:25;;;;;;;21.95;9.80;;;;;;;6.70;99.18;102195.25;5095809;28;20043;-76
2022/03/14 05:26:55;;;;;;;18.50;11.10;;;;;;;6.71;99.46;102194.28;5077516;28;20058;-76
2022/03/14 05:29:21;;;;;;;25.77;12.13;;;;;;;6.69;99.36;102196.19;5095586;28;20031;-75
2022/03/14 05:31:47;;;;;;;22.30;12.35;;;;;;;6.65;99.45;102199.06;5096040;28;20036;-78
2022/03/14 05:34:12;;;;;;;25.55;13.02;;;;;;;6.59;99.23;102200.25;5077369;28;20067;-76
2022/03/14 05:36:39;;;;;;;23.25;13.00;;;;;;;6.58;99.74;102202.97;5095279;28;20066;-76
2022/03/14 05:39:04;;;;;;;21.27;13.80;;;;;;;6.55;99.58;102198.69;5095336;28;20044;-77
2022/03/14 05:41:30;;;;;;;22.38;13.73;;;;;;;6.52;99.83;102212.06;5061044;28;20032;-76
2022/03/14 05:43:56;;;;;;;22.00;13.93;;;;;;;6.45;99.99;102208.00;5095141;28;20055;-77
2022/03/14 05:46:21;;;;;;;22.52;15.32;;;;;;;6.43;100.00;102207.25;5094555;28;20452;-76
2022/03/14 05:48:47;;;;;;;23.15;15.15;;;;;;;6.43;100.00;102204.59;5076869;28;20032;-76
2022/03/14 05:51:12;;;;;;;27.63;16.17;;;;;;;6.41;100.00;102211.78;5076842;28;20035;-76
2022/03/14 05:53:37;;;;;;;22.15;16.13;;;;;;;6.40;100.00;102205.59;5095101;28;20055;-76
2022/03/14 05:56:03;;;;;;;23.55;16.25;;;;;;;6.38;100.00;102204.00;5095512;28;20040;-77
2022/03/14 05:58:29;;;;;;;27.83;16.75;;;;;;;6.37;100.00;102210.22;5094643;28;20040;-77
2022/03/14 06:00:54;;;;;;;25.45;16.25;;;;;;;6.39;100.00;102214.50;5094957;28;20050;-77
2022/03/14 06:03:20;;;;;;;26.60;16.25;;;;;;;6.42;100.00;102218.75;5094866;28;20028;-77
2022/03/14 06:05:49;;;;;;;27.13;15.63;;;;;;;6.48;100.00;102226.41;5095089;28;20032;-76
2022/03/14 06:08:15;;;;;;;22.70;14.85;;;;;;;6.51;100.00;102229.72;5095400;28;20093;-77
2022/03/14 06:10:43;;;;;;;23.15;15.00;;;;;;;6.59;100.00;102237.25;5076632;28;20024;-76
2022/03/14 06:13:08;;;;;;;20.02;15.13;;;;;;;6.59;100.00;102247.84;5094466;28;20043;-77
2022/03/14 06:15:34;;;;;;;23.45;15.00;;;;;;;6.56;100.00;102253.28;5094826;28;20032;-76
2022/03/14 06:17:59;;;;;;;18.33;14.43;;;;;;;6.52;100.00;102257.00;5094350;28;20127;-76
2022/03/14 06:20:24;;;;;;;19.50;13.55;;;;;;;6.51;100.00;102264.09;5094700;28;20024;-76
2022/03/14 06:22:50;;;;;;;24.70;14.30;;;;;;;6.51;100.00;102271.19;5094997;28;20047;-76
2022/03/14 06:25:19;;;;;;;21.77;14.73;;;;;;;6.50;100.00;102275.59;5094367;28;20032;-79
2022/03/14 06:27:45;;;;;;;20.08;14.23;;;;;;;6.51;100.00;102277.31;5094477;28;20032;-77
2022/03/14 06:30:11;;;;;;;24.65;15.38;;;;;;;6.53;100.00;102277.25;5094824;28;20032;-77
2022/03/14 06:32:38;;;;;;;19.63;14.13;;;;;;;6.53;100.00;102274.59;5076220;28;20024;-77
2022/03/14 06:35:05;;;;;;;23.23;14.43;;;;;;;6.56;100.00;102289.47;5094138;28;20024;-78
2022/03/14 06:37:31;;;;;;;20.40;14.48;;;;;;;6.59;100.00;102290.16;5094343;28;20062;-78
2022/03/14 06:39:56;;;;;;;21.35;14.32;;;;;;;6.62;100.00;102294.44;5094235;28;20127;-77
2022/03/14 06:42:22;;;;;;;23.48;15.57;;;;;;;6.64;100.00;102293.44;5094194;28;20056;-76
2022/03/14 06:44:50;;;;;;;23.13;15.13;;;;;;;6.65;100.00;102302.22;5094265;28;20034;-77
2022/03/14 06:47:17;;;;;;;24.30;14.27;;;;;;;6.64;100.00;102309.31;5093999;28;20115;-77
2022/03/14 06:49:44;;;;;;;20.77;14.77;;;;;;;6.67;100.00;102321.50;5093953;28;20043;-77
2022/03/14 06:52:11;;;;;;;18.95;14.35;;;;;;;6.67;100.00;102317.09;5093611;28;20089;-77
2022/03/14 06:54:36;;;;;;;20.83;14.98;;;;;;;6.70;100.00;102322.22;5093781;28;20039;-76
2022/03/14 06:57:02;;;;;;;23.00;14.38;;;;;;;6.74;100.00;102328.19;5093200;28;20032;-77
2022/03/14 06:59:28;;;;;;;22.52;15.77;;;;;;;6.78;100.00;102334.22;5092885;28;20028;-75
2022/03/14 07:01:54;;;;;;;24.25;15.15;;;;;;;6.83;100.00;102334.81;5075622;28;20039;-78
2022/03/14 07:04:19;;;;;;;18.70;14.75;;;;;;;6.86;100.00;102332.84;5093698;28;20147;-76
2022/03/14 07:06:45;;;;;;;21.77;14.60;;;;;;;6.92;100.00;102341.44;5093889;28;20043;-77
2022/03/14 07:09:10;;;;;;;19.48;13.57;;;;;;;6.96;100.00;102333.25;5093388;28;20488;-77
2022/03/14 07:11:36;;;;;;;21.75;14.50;;;;;;;7.00;100.00;102336.59;5094091;28;20039;-77
2022/03/14 07:14:02;;;;;;;21.77;13.52;;;;;;;7.04;100.00;102333.69;5075712;28;20028;-80
2022/03/14 07:16:27;;;;;;;24.83;16.10;;;;;;;7.05;100.00;102338.06;5093490;28;20461;-77
2022/03/14 07:18:53;;;;;;;20.17;13.82;;;;;;;7.10;100.00;102339.63;5075427;28;20130;-77
2022/03/14 07:21:18;;;;;;;21.67;13.82;;;;;;;7.15;100.00;102348.16;5093304;28;20067;-77
2022/03/14 07:23:45;;;;;;;18.75;13.38;;;;;;;7.24;99.91;102347.72;5093900;28;20512;-77
2022/03/14 07:26:11;;;;;;;19.23;13.50;;;;;;;7.33;99.53;102354.28;5093646;28;20094;-77
2022/03/14 07:28:37;;;;;;;17.73;12.85;;;;;;;7.40;99.44;102348.63;5093267;28;20050;-77
2022/03/14 07:31:02;;;;;;;19.55;12.93;;;;;;;7.46;98.82;102359.81;5075370;28;20460;-77
2022/03/14 07:33:28;;;;;;;20.50;12.70;;;;;;;7.54;98.37;102350.53;5093241;28;20484;-77
2022/03/14 07:35:54;;;;;;;18.92;13.93;;;;;;;7.56;97.48;102353.09;5093152;28;20032;-77
2022/03/14 07:38:20;;;;;;;21.55;14.52;;;;;;;7.65;97.02;102359.69;5093705;28;20052;-77
2022/03/14 07:40:46;;;;;;;23.20;14.40;;;;;;;7.73;96.50;102362.75;5093279;28;20034;-77
2022/03/14 07:43:12;;;;;;;24.83;15.85;;;;;;;7.80;95.90;102368.59;5093568;28;20020;-76
2022/03/14 07:45:38;;;;;;;27.02;17.77;;;;;;;7.89;95.95;102376.03;5075222;28;20028;-76
2022/03/14 07:48:04;;;;;;;32.65;20.17;;;;;;;7.98;94.42;102378.19;5093731;28;20028;-76
2022/03/14 07:50:29;;;;;;;31.50;21.05;;;;;;;8.03;93.79;102377.91;5093335;28;20062;-75
2022/03/14 07:52:56;;;;;;;42.97;26.58;;;;;;;8.12;92.98;102380.06;5093138;28;20089;-76
2022/03/14 07:55:22;;;;;;;39.83;24.63;;;;;;;8.12;92.12;102388.88;5075546;28;20028;-77
2022/03/14 07:57:48;;;;;;;33.70;22.73;;;;;;;8.20;91.79;102396.41;5093289;28;20032;-78
2022/03/14 08:00:21;;;;;;;34.75;22.35;;;;;;;8.23;90.78;102403.34;5092875;28;20032;-76
2022/03/14 08:02:48;;;;;;;35.17;22.88;;;;;;;8.19;90.59;102402.63;5093404;28;20074;-75
2022/03/14 08:05:17;;;;;;;35.83;23.13;;;;;;;8.18;90.09;102410.69;5092921;28;20036;-76
2022/03/14 08:07:46;;;;;;;31.52;24.45;;;;;;;8.11;89.92;102420.78;5093185;28;20039;-76
2022/03/14 08:10:14;;;;;;;35.95;25.15;;;;;;;8.01;90.80;102416.94;5077333;28;20060;-78
2022/03/14 08:12:50;;;;;;;39.55;25.52;;;;;;;7.94;91.28;102427.88;5079280;28;20115;-77
2022/03/14 08:15:21;;;;;;;35.08;25.55;;;;;;;7.99;90.87;102432.06;5097565;28;20032;-77
2022/03/14 08:17:47;;;;;;;34.38;25.17;;;;;;;8.02;90.86;102435.41;5096929;28;20077;-76
2022/03/14 08:20:12;;;;;;;37.03;26.10;;;;;;;8.03;91.25;102431.81;5079190;28;20059;-77
2022/03/14 08:22:38;;;;;;;41.58;26.73;;;;;;;8.04;91.66;102444.09;5096978;28;20460;-77
2022/03/14 08:25:04;;;;;;;39.97;26.70;;;;;;;8.08;91.20;102440.34;5096862;28;20035;-76
2022/03/14 08:27:30;;;;;;;31.05;22.92;;;;;;;8.15;90.63;102440.00;5097037;28;20032;-77
2022/03/14 08:29:55;;;;;;;27.08;19.67;;;;;;;8.13;89.91;102445.41;5078665;28;20058;-76
2022/03/14 08:32:21;;;;;;;28.30;18.48;;;;;;;8.11;90.00;102442.84;5096616;28;20428;-77
2022/03/14 08:34:47;;;;;;;26.52;17.75;;;;;;;8.17;89.55;102460.22;5096626;28;20032;-76
2022/03/14 08:37:13;;;;;;;25.52;17.63;;;;;;;8.19;89.62;102460.13;5096196;28;20074;-78
2022/03/14 08:39:38;;;;;;;28.67;16.60;;;;;;;8.24;89.21;102464.25;5097282;28;20032;-77
2022/03/14 08:42:04;;;;;;;22.08;15.77;;;;;;;8.32;89.13;102460.31;5096779;28;20062;-76
2022/03/14 08:44:30;;;;;;;26.45;17.67;;;;;;;8.46;88.40;102474.56;5096349;28;20100;-77
2022/03/14 08:46:55;;;;;;;22.02;17.02;;;;;;;8.56;88.78;102472.25;5096964;28;20027;-76
2022/03/14 08:49:21;;;;;;;24.90;16.70;;;;;;;8.74;87.44;102472.16;5096500;28;20036;-77
2022/03/14 08:51:46;;;;;;;23.88;17.17;;;;;;;8.74;85.97;102488.91;5096281;28;20436;-77
2022/03/14 08:54:11;;;;;;;25.33;17.42;;;;;;;8.73;86.21;102487.22;5096111;28;20051;-77
2022/03/14 08:56:37;;;;;;;22.30;15.93;;;;;;;8.65;86.10;102492.09;5078272;28;20036;-77
2022/03/14 08:59:04;;;;;;;25.40;16.17;;;;;;;8.73;86.63;102499.63;5096032;28;20081;-77
2022/03/14 09:01:30;;;;;;;25.63;17.40;;;;;;;8.79;86.22;102501.94;5096326;28;20500;-78
2022/03/14 09:03:56;;;;;;;30.58;17.85;;;;;;;8.86;86.32;102505.94;5095722;28;20480;-77
2022/03/14 09:06:21;;;;;;;28.40;17.25;;;;;;;8.95;84.86;102504.56;5096072;28;20067;-78
2022/03/14 09:08:47;;;;;;;25.30;17.90;;;;;;;8.99;84.77;102503.47;5095993;28;20384;-77
2022/03/14 09:11:13;;;;;;;28.67;18.58;;;;;;;9.13;84.94;102507.97;5096477;28;20076;-78
2022/03/14 09:13:38;;;;;;;29.02;17.73;;;;;;;9.31;84.61;102508.69;5095786;28;20024;-77
2022/03/14 09:16:05;;;;;;;29.33;17.63;;;;;;;9.43;83.29;102515.94;5095757;28;20070;-78
2022/03/14 09:18:31;;;;;;;26.30;16.73;;;;;;;9.63;82.43;102511.22;5095818;28;20357;-78
2022/03/14 09:20:57;;;;;;;25.70;17.42;;;;;;;9.95;81.73;102508.44;5077033;28;20039;-76
2022/03/14 09:23:25;;;;;;;24.70;16.27;;;;;;;10.24;79.82;102517.28;5095662;28;20114;-78
2022/03/14 09:25:51;;;;;;;25.52;14.77;;;;;;;10.39;78.13;102521.66;5095938;28;20059;-76
2022/03/14 09:28:16;;;;;;;25.45;14.55;;;;;;;10.48;77.15;102520.22;5095992;28;20043;-77
2022/03/14 09:30:43;;;;;;;31.67;13.75;;;;;;;10.39;77.71;102518.16;5077412;28;20383;-76
2022/03/14 09:33:08;;;;;;;23.65;12.27;;;;;;;10.27;77.96;102525.06;5095539;28;20030;-77
2022/03/14 09:35:34;;;;;;;19.92;13.50;;;;;;;10.15;79.30;102528.47;5096001;28;20036;-76
2022/03/14 09:38:00;;;;;;;20.38;12.82;;;;;;;10.22;77.48;102527.16;5095435;28;20048;-76
2022/03/14 09:40:29;;;;;;;22.50;13.73;;;;;;;10.12;79.47;102533.97;5095611;28;20134;-77
2022/03/14 09:42:55;;;;;;;21.60;13.20;;;;;;;10.66;78.16;102533.28;5094952;28;20077;-76
2022/03/14 09:45:22;;;;;;;22.77;12.60;;;;;;;11.14;75.63;102536.41;5077266;28;20115;-76
2022/03/14 09:48:02;;;;;;;17.38;11.20;;;;;;;11.62;72.24;102538.53;5095429;28;20028;-77
2022/03/14 09:50:39;;;;;;;19.65;10.52;;;;;;;12.10;69.43;102552.13;5095652;28;20405;-78
2022/03/14 09:53:07;;;;;;;20.40;10.57;;;;;;;11.89;69.77;102554.47;5095852;28;20032;-77
2022/03/14 09:55:35;;;;;;;20.50;10.60;;;;;;;11.60;71.79;102557.31;5095002;28;20028;-77
2022/03/14 09:58:01;;;;;;;19.55;11.30;;;;;;;11.59;72.79;102554.75;5095105;28;20028;-77
2022/03/14 10:00:27;;;;;;;27.95;11.68;;;;;;;11.37;73.77;102556.19;5095085;28;20032;-78
2022/03/14 10:02:52;;;;;;;17.02;10.20;;;;;;;11.85;70.70;102555.63;5095221;28;20426;-75
2022/03/14 10:05:19;;;;;;;22.13;13.18;;;;;;;11.88;70.33;102559.91;5094955;28;20028;-79
2022/03/14 10:07:45;;;;;;;23.10;12.85;;;;;;;11.78;71.33;102565.88;5094806;28;20078;-77
2022/03/14 10:10:11;;;;;;;26.73;14.32;;;;;;;11.70;72.34;102578.00;5094383;28;20040;-76
2022/03/14 10:12:37;;;;;;;24.40;14.05;;;;;;;11.70;70.55;102573.53;5094600;28;20050;-76
2022/03/14 10:15:05;;;;;;;23.05;15.50;;;;;;;11.97;70.96;102572.63;5076777;28;20028;-77
2022/03/14 10:17:31;;;;;;;24.88;14.32;;;;;;;13.55;67.04;102571.06;5094620;28;20059;-77
2022/03/14 10:19:59;;;;;;;22.15;13.55;;;;;;;15.63;58.98;102571.47;5095035;28;20039;-76
2022/03/14 10:22:32;;;;;;;19.45;12.30;;;;;;;16.81;53.87;102568.41;5076158;28;20024;-77
2022/03/14 10:25:04;;;;;;;20.98;11.20;;;;;;;17.46;51.14;102573.28;5094660;28;20040;-77
2022/03/14 10:27:32;;;;;;;17.45;10.30;;;;;;;18.31;49.12;102576.94;5094132;28;20088;-78
2022/03/14 10:29:58;;;;;;;20.73;11.40;;;;;;;18.86;47.08;102588.78;5094500;28;20028;-78
2022/03/14 10:32:30;;;;;;;20.00;11.27;;;;;;;18.60;46.13;102599.38;5075710;28;20043;-78
2022/03/14 10:35:00;;;;;;;18.00;11.13;;;;;;;17.85;47.71;102596.63;5095090;28;20101;-77
2022/03/14 10:37:31;;;;;;;19.38;11.80;;;;;;;17.01;51.18;102606.13;5094443;28;20426;-78
2022/03/14 10:40:06;;;;;;;22.88;10.85;;;;;;;17.19;50.91;102604.44;5094753;28;20126;-78
2022/03/14 10:42:42;;;;;;;19.30;11.32;;;;;;;18.05;47.71;102594.75;5093895;28;20040;-77
2022/03/14 10:45:18;;;;;;;18.02;10.27;;;;;;;18.50;47.07;102605.66;5094887;28;20044;-78
2022/03/14 10:47:52;;;;;;;23.00;11.05;;;;;;;17.73;48.34;102614.78;5076463;28;20043;-77
2022/03/14 10:50:33;;;;;;;18.05;10.70;;;;;;;17.53;48.01;102605.88;5094231;28;20177;-77
2022/03/14 10:53:07;;;;;;;22.27;10.90;;;;;;;18.53;47.97;102604.53;5094114;28;20032;-79
2022/03/14 10:55:38;;;;;;;18.67;10.85;;;;;;;18.28;47.19;102617.66;5093940;28;20024;-77
2022/03/14 10:58:12;;;;;;;16.92;11.43;;;;;;;18.68;46.79;102618.34;5094306;28;20028;-77
2022/03/14 11:00:45;;;;;;;21.33;11.38;;;;;;;17.79;47.69;102620.44;5093555;28;20111;-77
2022/03/14 11:03:10;;;;;;;19.40;10.38;;;;;;;16.85;48.86;102626.25;5075646;28;20032;-77
2022/03/14 11:05:43;;;;;;;22.48;11.50;;;;;;;15.92;52.75;102637.97;5093756;28;20039;-77
2022/03/14 11:08:28;;;;;;;17.52;10.15;;;;;;;15.23;53.87;102636.53;5094481;28;20033;-78
2022/03/14 11:10:55;;;;;;;20.80;10.80;;;;;;;14.62;55.82;102651.22;5093733;28;20547;-78
2022/03/14 11:13:21;;;;;;;18.42;11.27;;;;;;;14.67;57.11;102649.00;5075730;28;20027;-78
2022/03/14 11:15:46;;;;;;;23.20;11.32;;;;;;;14.28;58.88;102646.63;5093367;28;20354;-77